createdAt,value
2017-03-05T00:00:39.020Z,0
2017-03-05T00:01:39.739Z,0
2017-03-05T00:02:40.479Z,0
2017-03-05T00:03:41.220Z,0
2017-03-05T00:04:41.966Z,0
2017-03-05T00:05:42.704Z,0
2017-03-05T00:06:43.460Z,0
2017-03-05T00:07:44.209Z,0
2017-03-05T00:08:44.935Z,0
2017-03-05T00:09:45.657Z,0
2017-03-05T00:10:46.395Z,0
2017-03-05T00:11:47.132Z,0
2017-03-05T00:12:47.873Z,0
2017-03-05T00:13:48.619Z,0
2017-03-05T00:14:49.322Z,0
2017-03-05T00:15:50.054Z,0
2017-03-05T00:16:50.780Z,0
2017-03-05T00:17:51.536Z,0
2017-03-05T00:18:52.281Z,0
2017-03-05T00:19:52.993Z,0
2017-03-05T00:20:53.713Z,0
2017-03-05T00:21:54.434Z,0
2017-03-05T00:22:55.163Z,0
2017-03-05T00:23:55.896Z,0
2017-03-05T00:24:56.655Z,0
2017-03-05T00:25:57.357Z,0
2017-03-05T00:26:58.068Z,0
2017-03-05T00:27:58.838Z,0
2017-03-05T00:28:59.558Z,0
2017-03-05T00:30:00.297Z,0
2017-03-05T00:31:01.010Z,0
2017-03-05T00:32:01.754Z,0
2017-03-05T00:33:02.510Z,0
2017-03-05T00:34:03.244Z,0
2017-03-05T00:35:03.977Z,0
2017-03-05T00:36:04.722Z,0
2017-03-05T00:37:05.423Z,0
2017-03-05T00:38:06.150Z,0
2017-03-05T00:39:06.896Z,0
2017-03-05T00:40:07.626Z,0
2017-03-05T00:41:08.370Z,0
2017-03-05T00:42:09.089Z,0
2017-03-05T00:43:09.840Z,0
2017-03-05T00:44:10.579Z,0
2017-03-05T00:45:11.315Z,0
2017-03-05T00:46:12.062Z,0
2017-03-05T00:47:12.797Z,0
2017-03-05T00:48:13.530Z,0
2017-03-05T00:49:14.257Z,0
2017-03-05T00:50:14.987Z,0
2017-03-05T00:51:15.704Z,0
2017-03-05T00:52:16.440Z,0
2017-03-05T00:53:17.181Z,0
2017-03-05T00:54:17.951Z,0
2017-03-05T00:55:18.715Z,0
2017-03-05T00:56:19.448Z,0
2017-03-05T00:57:20.185Z,0
2017-03-05T00:58:20.960Z,0
2017-03-05T00:59:21.690Z,0
2017-03-05T01:00:22.436Z,0
2017-03-05T01:01:23.198Z,0
2017-03-05T01:02:23.984Z,0
2017-03-05T01:03:24.676Z,0
2017-03-05T01:04:25.440Z,0
2017-03-05T01:05:26.192Z,0
2017-03-05T01:06:26.914Z,0
2017-03-05T01:07:27.642Z,0
2017-03-05T01:08:28.374Z,0
2017-03-05T01:09:29.125Z,0
2017-03-05T01:10:29.861Z,0
2017-03-05T01:11:30.591Z,0
2017-03-05T01:12:31.311Z,0
2017-03-05T01:13:32.061Z,0
2017-03-05T01:14:32.794Z,0
2017-03-05T01:15:33.516Z,0
2017-03-05T01:16:34.245Z,0
2017-03-05T01:17:34.962Z,0
2017-03-05T01:18:35.697Z,0
2017-03-05T01:19:36.438Z,0
2017-03-05T01:20:37.162Z,0
2017-03-05T01:21:37.887Z,0
2017-03-05T01:22:38.624Z,0
2017-03-05T01:23:39.348Z,0
2017-03-05T01:24:40.082Z,0
2017-03-05T01:25:40.815Z,0
2017-03-05T01:26:41.543Z,0
2017-03-05T01:27:42.272Z,0
2017-03-05T01:28:43.000Z,0
2017-03-05T01:29:43.751Z,0
2017-03-05T01:30:44.477Z,0
2017-03-05T01:31:45.209Z,0
2017-03-05T01:32:45.949Z,0
2017-03-05T01:33:46.693Z,0
2017-03-05T01:34:47.411Z,0
2017-03-05T01:35:48.153Z,0
2017-03-05T01:36:48.884Z,0
2017-03-05T01:37:49.610Z,0
2017-03-05T01:38:50.348Z,0
2017-03-05T01:39:51.090Z,0
2017-03-05T01:40:51.834Z,0
2017-03-05T01:41:52.581Z,0
2017-03-05T01:42:53.323Z,0
2017-03-05T01:43:54.053Z,0
2017-03-05T01:44:54.787Z,0
2017-03-05T01:45:55.523Z,0
2017-03-05T01:46:56.281Z,0
2017-03-05T01:47:57.005Z,0
2017-03-05T01:48:57.750Z,0
2017-03-05T01:49:58.481Z,0
2017-03-05T01:50:59.203Z,0
2017-03-05T01:51:59.949Z,0
2017-03-05T01:53:00.706Z,0
2017-03-05T01:54:01.458Z,0
2017-03-05T01:55:02.177Z,0
2017-03-05T01:56:02.905Z,0
2017-03-05T01:57:03.657Z,0
2017-03-05T01:58:04.394Z,0
2017-03-05T01:59:05.143Z,0
2017-03-05T02:00:05.864Z,0
2017-03-05T02:01:06.583Z,0
2017-03-05T02:02:07.304Z,0
2017-03-05T02:03:08.048Z,0
2017-03-05T02:04:08.778Z,0
2017-03-05T02:05:09.501Z,0
2017-03-05T02:06:10.236Z,0
2017-03-05T02:07:10.978Z,0
2017-03-05T02:08:11.706Z,0
2017-03-05T02:09:12.489Z,0
2017-03-05T02:10:13.213Z,0
2017-03-05T02:11:13.932Z,0
2017-03-05T02:12:14.669Z,0
2017-03-05T02:13:15.454Z,0
2017-03-05T02:14:16.196Z,0
2017-03-05T02:15:16.928Z,0
2017-03-05T02:16:17.655Z,0
2017-03-05T02:17:18.371Z,0
2017-03-05T02:18:19.111Z,0
2017-03-05T02:19:19.834Z,0
2017-03-05T02:20:20.559Z,0
2017-03-05T02:21:21.314Z,0
2017-03-05T02:22:22.024Z,0
2017-03-05T02:23:22.744Z,0
2017-03-05T02:24:23.476Z,0
2017-03-05T02:25:24.228Z,0
2017-03-05T02:26:24.965Z,0
2017-03-05T02:27:25.693Z,0
2017-03-05T02:28:26.428Z,0
2017-03-05T02:29:27.154Z,0
2017-03-05T02:30:27.879Z,0
2017-03-05T02:31:28.637Z,0
2017-03-05T02:32:29.378Z,0
2017-03-05T02:33:30.101Z,0
2017-03-05T02:34:30.803Z,0
2017-03-05T02:35:31.535Z,0
2017-03-05T02:36:32.254Z,0
2017-03-05T02:37:32.963Z,0
2017-03-05T02:38:33.701Z,0
2017-03-05T02:39:34.426Z,0
2017-03-05T02:40:35.150Z,0
2017-03-05T02:41:35.880Z,0
2017-03-05T02:42:36.603Z,0
2017-03-05T02:43:37.325Z,0
2017-03-05T02:44:38.060Z,0
2017-03-05T02:45:38.791Z,0
2017-03-05T02:46:39.519Z,0
2017-03-05T02:47:40.260Z,0
2017-03-05T02:48:40.982Z,0
2017-03-05T02:49:41.711Z,0
2017-03-05T02:50:42.559Z,0
2017-03-05T02:51:43.285Z,0
2017-03-05T02:52:44.024Z,0
2017-03-05T02:53:44.763Z,0
2017-03-05T02:54:45.516Z,0
2017-03-05T02:55:46.240Z,0
2017-03-05T02:56:46.966Z,0
2017-03-05T02:57:47.689Z,0
2017-03-05T02:58:48.418Z,0
2017-03-05T02:59:49.109Z,0
2017-03-05T03:00:49.851Z,0
2017-03-05T03:01:50.568Z,0
2017-03-05T03:02:51.278Z,0
2017-03-05T03:03:52.022Z,0
2017-03-05T03:04:52.762Z,0
2017-03-05T03:05:53.497Z,0
2017-03-05T03:06:54.213Z,0
2017-03-05T03:07:54.937Z,0
2017-03-05T03:08:55.659Z,0
2017-03-05T03:09:56.368Z,0
2017-03-05T03:10:57.087Z,0
2017-03-05T03:11:57.822Z,0
2017-03-05T03:12:58.546Z,0
2017-03-05T03:13:59.265Z,0
2017-03-05T03:14:59.993Z,0
2017-03-05T03:16:00.730Z,0
2017-03-05T03:17:01.479Z,0
2017-03-05T03:18:02.193Z,0
2017-03-05T03:19:02.929Z,0
2017-03-05T03:20:03.678Z,0
2017-03-05T03:21:04.393Z,0
2017-03-05T03:22:05.142Z,0
2017-03-05T03:23:05.894Z,0
2017-03-05T03:24:06.615Z,0
2017-03-05T03:25:07.350Z,0
2017-03-05T03:26:08.071Z,0
2017-03-05T03:27:08.821Z,0
2017-03-05T03:28:09.555Z,0
2017-03-05T03:29:10.280Z,0
2017-03-05T03:30:11.019Z,0
2017-03-05T03:31:11.769Z,0
2017-03-05T03:32:12.508Z,0
2017-03-05T03:33:13.222Z,0
2017-03-05T03:34:13.937Z,0
2017-03-05T03:35:14.659Z,0
2017-03-05T03:36:15.377Z,0
2017-03-05T03:37:16.136Z,0
2017-03-05T03:38:16.894Z,0
2017-03-05T03:39:17.622Z,0
2017-03-05T03:40:18.357Z,0
2017-03-05T03:41:19.087Z,0
2017-03-05T03:42:19.813Z,0
2017-03-05T03:43:20.554Z,0
2017-03-05T03:44:21.271Z,0
2017-03-05T03:45:21.997Z,0
2017-03-05T03:46:22.723Z,0
2017-03-05T03:47:23.452Z,0
2017-03-05T03:48:24.183Z,0
2017-03-05T03:49:24.944Z,0
2017-03-05T03:50:25.665Z,0
2017-03-05T03:51:26.383Z,0
2017-03-05T03:52:27.111Z,0
2017-03-05T03:53:27.840Z,0
2017-03-05T03:54:28.569Z,0
2017-03-05T03:55:29.292Z,0
2017-03-05T03:56:30.003Z,0
2017-03-05T03:57:30.732Z,0
2017-03-05T03:58:31.437Z,0
2017-03-05T03:59:32.167Z,0
2017-03-05T04:00:32.901Z,0
2017-03-05T04:01:33.634Z,0
2017-03-05T04:02:34.363Z,0
2017-03-05T04:03:35.083Z,0
2017-03-05T04:04:35.797Z,0
2017-03-05T04:05:36.563Z,0
2017-03-05T04:06:37.279Z,0
2017-03-05T04:07:38.014Z,0
2017-03-05T04:08:38.759Z,0
2017-03-05T04:09:39.478Z,0
2017-03-05T04:10:40.231Z,0
2017-03-05T04:11:40.944Z,0
2017-03-05T04:12:41.666Z,0
2017-03-05T04:13:42.408Z,0
2017-03-05T04:14:43.147Z,0
2017-03-05T04:15:43.895Z,0
2017-03-05T04:16:44.641Z,0
2017-03-05T04:17:45.391Z,0
2017-03-05T04:18:46.132Z,0
2017-03-05T04:19:46.856Z,0
2017-03-05T04:20:47.615Z,0
2017-03-05T04:21:48.354Z,0
2017-03-05T04:22:49.113Z,0
2017-03-05T04:23:49.834Z,0
2017-03-05T04:24:50.570Z,0
2017-03-05T04:25:51.283Z,0
2017-03-05T04:26:52.015Z,0
2017-03-05T04:27:52.729Z,0
2017-03-05T04:28:53.471Z,0
2017-03-05T04:29:54.223Z,0
2017-03-05T04:30:54.944Z,0
2017-03-05T04:31:55.695Z,0
2017-03-05T04:32:56.430Z,0
2017-03-05T04:33:57.148Z,0
2017-03-05T04:34:57.892Z,0
2017-03-05T04:35:58.635Z,0
2017-03-05T04:36:59.353Z,0
2017-03-05T04:38:00.060Z,0
2017-03-05T04:39:00.806Z,0
2017-03-05T04:40:01.552Z,0
2017-03-05T04:41:02.272Z,0
2017-03-05T04:42:02.998Z,0
2017-03-05T04:43:03.713Z,0
2017-03-05T04:44:04.455Z,0
2017-03-05T04:45:05.171Z,0
2017-03-05T04:46:05.911Z,0
2017-03-05T04:47:06.655Z,0
2017-03-05T04:48:07.364Z,0
2017-03-05T04:49:08.108Z,0
2017-03-05T04:50:08.837Z,0
2017-03-05T04:51:09.551Z,0
2017-03-05T04:52:10.248Z,0
2017-03-05T04:53:10.962Z,0
2017-03-05T04:54:11.683Z,0
2017-03-05T04:55:12.413Z,0
2017-03-05T04:56:13.142Z,0
2017-03-05T04:57:13.883Z,0
2017-03-05T04:58:14.583Z,0
2017-03-05T04:59:15.354Z,0
2017-03-05T05:00:16.082Z,0
2017-03-05T05:01:16.800Z,0
2017-03-05T05:02:17.559Z,0
2017-03-05T05:03:18.282Z,0
2017-03-05T05:04:19.005Z,0
2017-03-05T05:05:19.704Z,0
2017-03-05T05:06:20.413Z,0
2017-03-05T05:07:21.126Z,0
2017-03-05T05:08:21.857Z,0
2017-03-05T05:09:22.580Z,0
2017-03-05T05:10:23.293Z,0
2017-03-05T05:11:24.022Z,0
2017-03-05T05:12:24.736Z,0
2017-03-05T05:13:25.434Z,0
2017-03-05T05:14:26.161Z,0
2017-03-05T05:15:26.871Z,0
2017-03-05T05:16:27.589Z,0
2017-03-05T05:17:28.308Z,0
2017-03-05T05:18:29.027Z,0
2017-03-05T05:19:29.732Z,0
2017-03-05T05:20:30.449Z,0
2017-03-05T05:21:31.217Z,0
2017-03-05T05:22:31.946Z,0
2017-03-05T05:23:32.662Z,0
2017-03-05T05:24:33.478Z,0
2017-03-05T05:25:34.203Z,0
2017-03-05T05:26:34.920Z,0
2017-03-05T05:27:35.643Z,0
2017-03-05T05:28:36.343Z,0
2017-03-05T05:29:37.054Z,0
2017-03-05T05:30:37.764Z,0
2017-03-05T05:31:38.608Z,0
2017-03-05T05:32:39.343Z,0
2017-03-05T05:33:40.049Z,0
2017-03-05T05:34:40.764Z,0
2017-03-05T05:35:41.479Z,0
2017-03-05T05:36:42.194Z,4
2017-03-05T05:37:42.915Z,0
2017-03-05T05:38:43.620Z,4
2017-03-05T05:39:44.331Z,4
2017-03-05T05:40:45.087Z,8
2017-03-05T05:41:45.813Z,8
2017-03-05T05:42:46.534Z,8
2017-03-05T05:43:47.257Z,12
2017-03-05T05:44:47.985Z,12
2017-03-05T05:45:48.684Z,16
2017-03-05T05:46:49.407Z,16
2017-03-05T05:47:50.115Z,20
2017-03-05T05:48:50.840Z,20
2017-03-05T05:49:51.562Z,28
2017-03-05T05:50:52.293Z,32
2017-03-05T05:51:53.023Z,36
2017-03-05T05:52:53.749Z,44
2017-03-05T05:53:54.475Z,44
2017-03-05T05:54:55.190Z,48
2017-03-05T05:55:55.902Z,60
2017-03-05T05:56:56.639Z,64
2017-03-05T05:57:57.365Z,72
2017-03-05T05:58:58.089Z,80
2017-03-05T05:59:58.799Z,88
2017-03-05T06:00:59.516Z,96
2017-03-05T06:02:00.232Z,108
2017-03-05T06:03:00.940Z,120
2017-03-05T06:04:01.683Z,136
2017-03-05T06:05:02.412Z,156
2017-03-05T06:06:03.140Z,176
2017-03-05T06:07:03.885Z,196
2017-03-05T06:08:04.627Z,216
2017-03-05T06:09:05.354Z,240
2017-03-05T06:10:06.078Z,264
2017-03-05T06:11:06.791Z,284
2017-03-05T06:12:07.509Z,312
2017-03-05T06:13:08.237Z,336
2017-03-05T06:14:08.955Z,356
2017-03-05T06:15:09.699Z,380
2017-03-05T06:16:10.418Z,404
2017-03-05T06:17:11.142Z,428
2017-03-05T06:18:11.862Z,448
2017-03-05T06:19:12.620Z,480
2017-03-05T06:20:13.350Z,512
2017-03-05T06:21:14.084Z,544
2017-03-05T06:22:14.810Z,588
2017-03-05T06:23:15.534Z,640
2017-03-05T06:24:16.258Z,696
2017-03-05T06:25:17.000Z,760
2017-03-05T06:26:17.734Z,832
2017-03-05T06:27:18.474Z,892
2017-03-05T06:28:19.237Z,948
2017-03-05T06:29:19.970Z,1016
2017-03-05T06:30:20.690Z,1104
2017-03-05T06:31:21.417Z,1196
2017-03-05T06:32:22.132Z,1280
2017-03-05T06:33:22.854Z,1364
2017-03-05T06:34:23.590Z,1476
2017-03-05T06:35:24.336Z,1592
2017-03-05T06:36:25.076Z,1700
2017-03-05T06:37:25.793Z,1840
2017-03-05T06:38:26.506Z,1980
2017-03-05T06:39:27.233Z,2108
2017-03-05T06:40:27.969Z,2192
2017-03-05T06:41:28.690Z,2260
2017-03-05T06:42:29.414Z,2380
2017-03-05T06:43:30.164Z,2528
2017-03-05T06:44:30.889Z,2680
2017-03-05T06:45:31.626Z,2816
2017-03-05T06:46:32.368Z,2960
2017-03-05T06:47:33.084Z,3156
2017-03-05T06:48:33.827Z,3300
2017-03-05T06:49:34.565Z,3368
2017-03-05T06:50:35.307Z,3484
2017-03-05T06:51:36.040Z,3716
2017-03-05T06:52:36.764Z,3792
2017-03-05T06:53:37.494Z,3548
2017-03-05T06:54:38.201Z,3072
2017-03-05T06:55:38.952Z,2504
2017-03-05T06:56:39.672Z,2308
2017-03-05T06:57:40.397Z,2176
2017-03-05T06:58:41.162Z,2184
2017-03-05T06:59:41.885Z,2244
2017-03-05T07:00:42.606Z,2424
2017-03-05T07:01:43.312Z,2596
2017-03-05T07:02:44.036Z,2712
2017-03-05T07:03:44.769Z,3024
2017-03-05T07:04:45.517Z,3192
2017-03-05T07:05:46.236Z,2620
2017-03-05T07:06:48.511Z,2480
2017-03-05T07:07:49.695Z,2148
2017-03-05T07:08:50.729Z,2364
2017-03-05T07:09:51.459Z,1984
2017-03-05T07:10:52.178Z,1924
2017-03-05T07:11:52.957Z,2232
2017-03-05T07:12:53.708Z,2452
2017-03-05T07:13:54.421Z,2656
2017-03-05T07:14:55.158Z,2804
2017-03-05T07:15:55.907Z,2220
2017-03-05T07:16:56.612Z,1936
2017-03-05T07:17:57.344Z,1896
2017-03-05T07:18:58.060Z,2016
2017-03-05T07:19:58.802Z,1884
2017-03-05T07:20:59.537Z,1836
2017-03-05T07:22:00.258Z,1896
2017-03-05T07:23:00.977Z,1772
2017-03-05T07:24:01.715Z,1832
2017-03-05T07:25:02.442Z,2020
2017-03-05T07:26:03.172Z,2192
2017-03-05T07:27:03.931Z,2024
2017-03-05T07:28:04.649Z,1452
2017-03-05T07:29:05.445Z,1572
2017-03-05T07:30:06.180Z,1204
2017-03-05T07:31:06.923Z,1216
2017-03-05T07:32:07.649Z,1040
2017-03-05T07:33:08.366Z,800
2017-03-05T07:34:09.099Z,708
2017-03-05T07:35:09.858Z,796
2017-03-05T07:36:10.662Z,820
2017-03-05T07:37:11.380Z,920
2017-03-05T07:38:12.093Z,868
2017-03-05T07:39:12.842Z,904
2017-03-05T07:40:13.592Z,1012
2017-03-05T07:41:14.340Z,1044
2017-03-05T07:42:15.053Z,1196
2017-03-05T07:43:15.775Z,1444
2017-03-05T07:44:16.496Z,1280
2017-03-05T07:45:17.219Z,1096
2017-03-05T07:46:17.948Z,1268
2017-03-05T07:47:18.711Z,1532
2017-03-05T07:48:19.434Z,1720
2017-03-05T07:49:20.166Z,1912
2017-03-05T07:50:20.930Z,2184
2017-03-05T07:51:21.653Z,2304
2017-03-05T07:52:22.386Z,2544
2017-03-05T07:53:23.124Z,2796
2017-03-05T07:54:23.901Z,3220
2017-03-05T07:55:24.670Z,3856
2017-03-05T07:56:25.393Z,4016
2017-03-05T07:57:26.106Z,4052
2017-03-05T07:58:26.860Z,3384
2017-03-05T07:59:27.605Z,2368
2017-03-05T08:00:28.342Z,2668
2017-03-05T08:01:29.091Z,3184
2017-03-05T08:02:29.824Z,3180
2017-03-05T08:03:30.547Z,2900
2017-03-05T08:04:31.293Z,2644
2017-03-05T08:05:32.043Z,2876
2017-03-05T08:06:32.783Z,2060
2017-03-05T08:07:33.514Z,1960
2017-03-05T08:08:34.265Z,2168
2017-03-05T08:09:34.996Z,1928
2017-03-05T08:10:35.745Z,2244
2017-03-05T08:11:36.488Z,2208
2017-03-05T08:12:37.210Z,2488
2017-03-05T08:13:37.936Z,3076
2017-03-05T08:14:38.658Z,3284
2017-03-05T08:15:39.377Z,3364
2017-03-05T08:16:40.117Z,2728
2017-03-05T08:17:40.841Z,3224
2017-03-05T08:18:41.631Z,3940
2017-03-05T08:19:42.398Z,3988
2017-03-05T08:20:43.127Z,3956
2017-03-05T08:21:43.884Z,2952
2017-03-05T08:22:44.605Z,2720
2017-03-05T08:23:45.344Z,3220
2017-03-05T08:24:46.119Z,3168
2017-03-05T08:25:46.861Z,3584
2017-03-05T08:26:47.616Z,4044
2017-03-05T08:27:48.337Z,3616
2017-03-05T08:28:49.056Z,4628
2017-03-05T08:29:49.800Z,4148
2017-03-05T08:30:50.586Z,6044
2017-03-05T08:31:51.344Z,8424
2017-03-05T08:32:52.096Z,9408
2017-03-05T08:33:52.823Z,8820
2017-03-05T08:34:53.537Z,8504
2017-03-05T08:35:54.285Z,9148
2017-03-05T08:36:55.028Z,6804
2017-03-05T08:37:55.746Z,7072
2017-03-05T08:38:56.484Z,5476
2017-03-05T08:39:57.230Z,3860
2017-03-05T08:40:58.049Z,4008
2017-03-05T08:41:58.819Z,5396
2017-03-05T08:42:59.562Z,5664
2017-03-05T08:44:00.285Z,5284
2017-03-05T08:45:01.013Z,4004
2017-03-05T08:46:01.752Z,3588
2017-03-05T08:47:02.478Z,2892
2017-03-05T08:48:03.204Z,3004
2017-03-05T08:49:03.935Z,3144
2017-03-05T08:50:04.674Z,3364
2017-03-05T08:51:05.425Z,3296
2017-03-05T08:52:06.155Z,2860
2017-03-05T08:53:06.893Z,3180
2017-03-05T08:54:07.623Z,2848
2017-03-05T08:55:08.385Z,4764
2017-03-05T08:56:09.102Z,4016
2017-03-05T08:57:09.832Z,3644
2017-03-05T08:58:10.555Z,3356
2017-03-05T08:59:11.294Z,3604
2017-03-05T09:00:12.037Z,3300
2017-03-05T09:01:12.781Z,2520
2017-03-05T09:02:13.559Z,3232
2017-03-05T09:03:14.277Z,3664
2017-03-05T09:04:15.050Z,3988
2017-03-05T09:05:15.815Z,3964
2017-03-05T09:06:16.535Z,4316
2017-03-05T09:07:17.277Z,4552
2017-03-05T09:08:18.007Z,5396
2017-03-05T09:09:18.754Z,6676
2017-03-05T09:10:19.474Z,6564
2017-03-05T09:11:20.205Z,4996
2017-03-05T09:12:20.933Z,4336
2017-03-05T09:13:21.704Z,4544
2017-03-05T09:14:22.517Z,5492
2017-03-05T09:15:23.282Z,5828
2017-03-05T09:16:24.048Z,5056
2017-03-05T09:17:24.777Z,5360
2017-03-05T09:18:25.492Z,4212
2017-03-05T09:19:26.226Z,4368
2017-03-05T09:20:27.014Z,5768
2017-03-05T09:21:27.772Z,4848
2017-03-05T09:22:28.493Z,4968
2017-03-05T09:23:29.211Z,5044
2017-03-05T09:24:29.914Z,4700
2017-03-05T09:25:30.646Z,4084
2017-03-05T09:26:31.375Z,3896
2017-03-05T09:27:32.150Z,4208
2017-03-05T09:28:32.865Z,4960
2017-03-05T09:29:33.755Z,4840
2017-03-05T09:30:34.518Z,5112
2017-03-05T09:31:35.322Z,4104
2017-03-05T09:32:36.030Z,4356
2017-03-05T09:33:36.773Z,5468
2017-03-05T09:34:37.511Z,5032
2017-03-05T09:35:38.249Z,4988
2017-03-05T09:36:38.984Z,4676
2017-03-05T09:37:39.723Z,4512
2017-03-05T09:38:40.762Z,4268
2017-03-05T09:39:41.528Z,4636
2017-03-05T09:40:42.274Z,4772
2017-03-05T09:41:43.040Z,5592
2017-03-05T09:42:43.763Z,6420
2017-03-05T09:43:44.493Z,6828
2017-03-05T09:44:45.244Z,7192
2017-03-05T09:45:46.017Z,7228
2017-03-05T09:46:46.764Z,7716
2017-03-05T09:47:48.048Z,7656
2017-03-05T09:48:48.980Z,7772
2017-03-05T09:49:50.728Z,8436
2017-03-05T09:50:51.496Z,8524
2017-03-05T09:51:52.255Z,9148
2017-03-05T09:52:52.981Z,9376
2017-03-05T09:53:54.063Z,9336
2017-03-05T09:54:54.789Z,8592
2017-03-05T09:55:55.543Z,7828
2017-03-05T09:56:56.294Z,7524
2017-03-05T09:57:57.031Z,6728
2017-03-05T09:58:57.824Z,7756
2017-03-05T09:59:58.562Z,8172
2017-03-05T10:00:59.321Z,9980
2017-03-05T10:02:00.064Z,10928
2017-03-05T10:03:01.757Z,9228
2017-03-05T10:04:02.901Z,9264
2017-03-05T10:05:03.746Z,8784
2017-03-05T10:06:04.496Z,10880
2017-03-05T10:07:05.225Z,11940
2017-03-05T10:08:05.942Z,15876
2017-03-05T10:09:06.723Z,16336
2017-03-05T10:10:07.493Z,16264
2017-03-05T10:11:08.203Z,16672
2017-03-05T10:12:08.952Z,16816
2017-03-05T10:13:09.691Z,14824
2017-03-05T10:14:10.424Z,14260
2017-03-05T10:15:11.170Z,9760
2017-03-05T10:16:11.943Z,13152
2017-03-05T10:17:12.677Z,12916
2017-03-05T10:18:13.408Z,13032
2017-03-05T10:19:14.145Z,15812
2017-03-05T10:20:14.883Z,18816
2017-03-05T10:21:15.620Z,16948
2017-03-05T10:22:16.358Z,12880
2017-03-05T10:23:17.135Z,12404
2017-03-05T10:24:17.968Z,11128
2017-03-05T10:25:18.787Z,9440
2017-03-05T10:26:19.578Z,10596
2017-03-05T10:27:20.312Z,10000
2017-03-05T10:28:21.122Z,7292
2017-03-05T10:29:21.900Z,6012
2017-03-05T10:30:22.777Z,5072
2017-03-05T10:31:23.574Z,3836
2017-03-05T10:32:24.393Z,4600
2017-03-05T10:33:25.125Z,6648
2017-03-05T10:34:25.893Z,7444
2017-03-05T10:35:26.623Z,6840
2017-03-05T10:36:27.394Z,6812
2017-03-05T10:37:28.479Z,9632
2017-03-05T10:38:29.265Z,8596
2017-03-05T10:39:30.056Z,8668
2017-03-05T10:40:30.848Z,10608
2017-03-05T10:41:31.611Z,8980
2017-03-05T10:42:32.367Z,7884
2017-03-05T10:43:33.136Z,9432
2017-03-05T10:44:33.888Z,10856
2017-03-05T10:45:34.682Z,12804
2017-03-05T10:46:35.459Z,12476
2017-03-05T10:47:36.281Z,9892
2017-03-05T10:48:37.061Z,9268
2017-03-05T10:49:37.813Z,9228
2017-03-05T10:50:38.576Z,12572
2017-03-05T10:51:39.319Z,12764
2017-03-05T10:52:40.049Z,12880
2017-03-05T10:53:40.792Z,15052
2017-03-05T10:54:41.526Z,15232
2017-03-05T10:55:42.274Z,13084
2017-03-05T10:56:43.032Z,11948
2017-03-05T10:57:43.988Z,12676
2017-03-05T10:58:44.905Z,10528
2017-03-05T10:59:45.831Z,13372
2017-03-05T11:00:46.586Z,14004
2017-03-05T11:01:47.316Z,13496
2017-03-05T11:02:48.049Z,14528
2017-03-05T11:03:48.784Z,12676
2017-03-05T11:04:49.530Z,11104
2017-03-05T11:05:50.878Z,9900
2017-03-05T11:06:51.632Z,8820
2017-03-05T11:07:52.378Z,7788
2017-03-05T11:08:53.105Z,7472
2017-03-05T11:09:53.837Z,7040
2017-03-05T11:10:54.585Z,7500
2017-03-05T11:11:55.318Z,6164
2017-03-05T11:12:56.086Z,7040
2017-03-05T11:13:56.813Z,9924
2017-03-05T11:14:57.559Z,9944
2017-03-05T11:15:58.317Z,11056
2017-03-05T11:16:59.121Z,10332
2017-03-05T11:17:59.837Z,9332
2017-03-05T11:19:00.568Z,8904
2017-03-05T11:20:01.313Z,9344
2017-03-05T11:21:02.065Z,10664
2017-03-05T11:22:02.807Z,10580
2017-03-05T11:23:03.539Z,10540
2017-03-05T11:24:04.277Z,10680
2017-03-05T11:25:05.030Z,13964
2017-03-05T11:26:05.772Z,15648
2017-03-05T11:27:06.512Z,15112
2017-03-05T11:28:07.244Z,15956
2017-03-05T11:29:07.979Z,15012
2017-03-05T11:30:08.708Z,13664
2017-03-05T11:31:09.450Z,12960
2017-03-05T11:32:10.194Z,11944
2017-03-05T11:33:10.932Z,11408
2017-03-05T11:34:11.841Z,12212
2017-03-05T11:35:12.598Z,12252
2017-03-05T11:36:13.331Z,11992
2017-03-05T11:37:14.078Z,11412
2017-03-05T11:38:14.820Z,9376
2017-03-05T11:39:15.548Z,9356
2017-03-05T11:40:16.305Z,10192
2017-03-05T11:41:17.059Z,10748
2017-03-05T11:42:17.809Z,10112
2017-03-05T11:43:18.554Z,8540
2017-03-05T11:44:19.287Z,7560
2017-03-05T11:45:20.054Z,6532
2017-03-05T11:46:20.796Z,5808
2017-03-05T11:47:21.525Z,5864
2017-03-05T11:48:22.332Z,6024
2017-03-05T11:49:23.067Z,6220
2017-03-05T11:50:23.823Z,6692
2017-03-05T11:51:24.570Z,5820
2017-03-05T11:52:25.300Z,6908
2017-03-05T11:53:26.044Z,5800
2017-03-05T11:54:26.781Z,5188
2017-03-05T11:55:27.567Z,5236
2017-03-05T11:56:28.304Z,7488
2017-03-05T11:57:29.088Z,8044
2017-03-05T11:58:29.800Z,8816
2017-03-05T11:59:30.531Z,9408
2017-03-05T12:00:31.301Z,9004
2017-03-05T12:01:32.049Z,8288
2017-03-05T12:02:32.803Z,8120
2017-03-05T12:03:33.533Z,7612
2017-03-05T12:04:34.319Z,7400
2017-03-05T12:05:35.060Z,7776
2017-03-05T12:06:35.803Z,7904
2017-03-05T12:07:36.536Z,7540
2017-03-05T12:08:37.277Z,7504
2017-03-05T12:09:38.020Z,6924
2017-03-05T12:10:38.764Z,6712
2017-03-05T12:11:39.503Z,6512
2017-03-05T12:12:40.227Z,6276
2017-03-05T12:13:41.000Z,5236
2017-03-05T12:14:41.722Z,4828
2017-03-05T12:15:42.489Z,4216
2017-03-05T12:16:43.247Z,3620
2017-03-05T12:17:43.975Z,3444
2017-03-05T12:18:44.733Z,3312
2017-03-05T12:19:45.491Z,2940
2017-03-05T12:20:46.339Z,2952
2017-03-05T12:21:47.131Z,3660
2017-03-05T12:22:47.986Z,3980
2017-03-05T12:23:48.726Z,4268
2017-03-05T12:24:49.477Z,4980
2017-03-05T12:25:50.241Z,5344
2017-03-05T12:26:50.994Z,6096
2017-03-05T12:27:51.757Z,6960
2017-03-05T12:28:52.487Z,7520
2017-03-05T12:29:53.244Z,8008
2017-03-05T12:30:53.977Z,8008
2017-03-05T12:31:54.741Z,7904
2017-03-05T12:32:55.509Z,7948
2017-03-05T12:33:56.261Z,7768
2017-03-05T12:34:56.972Z,7828
2017-03-05T12:35:57.737Z,7472
2017-03-05T12:36:58.475Z,7180
2017-03-05T12:37:59.215Z,7488
2017-03-05T12:38:59.975Z,7796
2017-03-05T12:40:00.722Z,8180
2017-03-05T12:41:01.458Z,7920
2017-03-05T12:42:02.208Z,7900
2017-03-05T12:43:02.963Z,8048
2017-03-05T12:44:03.677Z,7624
2017-03-05T12:45:04.520Z,7528
2017-03-05T12:46:05.285Z,8192
2017-03-05T12:47:06.044Z,8568
2017-03-05T12:48:06.829Z,8868
2017-03-05T12:49:07.699Z,9056
2017-03-05T12:50:08.551Z,8676
2017-03-05T12:51:09.311Z,8548
2017-03-05T12:52:10.035Z,8276
2017-03-05T12:53:10.800Z,8092
2017-03-05T12:54:11.539Z,8116
2017-03-05T12:55:12.313Z,7056
2017-03-05T12:56:13.063Z,6484
2017-03-05T12:57:13.838Z,5904
2017-03-05T12:58:14.553Z,5048
2017-03-05T12:59:15.370Z,4668
2017-03-05T13:00:16.240Z,4276
2017-03-05T13:01:17.089Z,4596
2017-03-05T13:02:17.769Z,4316
2017-03-05T13:03:18.507Z,3988
2017-03-05T13:04:19.251Z,3888
2017-03-05T13:05:19.981Z,3448
2017-03-05T13:06:20.730Z,3424
2017-03-05T13:07:21.471Z,3732
2017-03-05T13:08:22.250Z,4304
2017-03-05T13:09:23.018Z,5028
2017-03-05T13:10:23.777Z,6140
2017-03-05T13:11:24.506Z,7056
2017-03-05T13:12:25.245Z,7272
2017-03-05T13:13:25.994Z,7712
2017-03-05T13:14:26.738Z,8276
2017-03-05T13:15:27.519Z,8460
2017-03-05T13:16:28.276Z,8572
2017-03-05T13:17:29.067Z,8620
2017-03-05T13:18:29.815Z,8896
2017-03-05T13:19:30.568Z,8348
2017-03-05T13:20:31.343Z,8368
2017-03-05T13:21:32.110Z,8224
2017-03-05T13:22:32.844Z,8300
2017-03-05T13:23:33.583Z,8836
2017-03-05T13:24:34.326Z,9000
2017-03-05T13:25:35.060Z,8200
2017-03-05T13:26:35.843Z,8216
2017-03-05T13:27:36.595Z,8256
2017-03-05T13:28:37.325Z,7616
2017-03-05T13:29:38.084Z,7332
2017-03-05T13:30:38.806Z,7464
2017-03-05T13:31:39.546Z,7424
2017-03-05T13:32:40.289Z,6972
2017-03-05T13:33:41.048Z,7356
2017-03-05T13:34:41.780Z,7636
2017-03-05T13:35:42.541Z,6844
2017-03-05T13:36:43.275Z,6912
2017-03-05T13:37:44.025Z,7000
2017-03-05T13:38:44.793Z,6388
2017-03-05T13:39:45.541Z,6248
2017-03-05T13:40:46.279Z,6416
2017-03-05T13:41:47.070Z,6860
2017-03-05T13:42:47.821Z,7704
2017-03-05T13:43:48.578Z,7140
2017-03-05T13:44:49.318Z,7040
2017-03-05T13:45:50.077Z,6748
2017-03-05T13:46:50.840Z,6592
2017-03-05T13:47:51.574Z,6628
2017-03-05T13:48:52.387Z,7568
2017-03-05T13:49:53.120Z,7556
2017-03-05T13:50:53.879Z,7188
2017-03-05T13:51:54.642Z,6976
2017-03-05T13:52:55.407Z,6912
2017-03-05T13:53:56.138Z,7616
2017-03-05T13:54:56.880Z,7948
2017-03-05T13:55:57.624Z,7768
2017-03-05T13:56:58.350Z,7472
2017-03-05T13:57:59.151Z,7140
2017-03-05T13:59:00.003Z,6636
2017-03-05T14:00:00.840Z,6576
2017-03-05T14:01:01.576Z,6124
2017-03-05T14:02:02.368Z,5568
2017-03-05T14:03:03.127Z,5240